createdAt,value
2022-11-24T00:02:31.532Z,100.00
2022-11-24T00:08:35.803Z,100.00
2022-11-24T00:14:37.791Z,100.00
2022-11-24T00:21:09.777Z,100.00
2022-11-24T00:27:15.012Z,100.00
2022-11-24T00:33:17.055Z,100.00
2022-11-24T00:39:21.995Z,100.00
2022-11-24T00:45:24.000Z,100.00
2022-11-24T00:51:29.790Z,100.00
2022-11-24T00:57:34.383Z,100.00
2022-11-24T01:03:37.203Z,100.00
2022-11-24T01:09:39.350Z,100.00
2022-11-24T01:15:41.434Z,100.00
2022-11-24T01:21:45.890Z,100.00
2022-11-24T01:27:47.928Z,100.00
2022-11-24T01:33:50.319Z,100.00
2022-11-24T01:39:52.326Z,100.00
2022-11-24T01:45:55.664Z,100.00
2022-11-24T01:52:53.326Z,100.00
2022-11-24T01:59:05.123Z,100.00
2022-11-24T02:05:41.751Z,100.00
2022-11-24T02:11:44.665Z,100.00
2022-11-24T02:17:47.065Z,100.00
2022-11-24T02:24:10.876Z,100.00
2022-11-24T02:30:15.877Z,100.00
2022-11-24T02:36:17.983Z,100.00
2022-11-24T02:42:20.283Z,100.00
2022-11-24T02:48:22.464Z,100.00
2022-11-24T02:54:24.532Z,100.00
2022-11-24T03:00:26.569Z,100.00
2022-11-24T03:06:28.653Z,100.00
2022-11-24T03:12:33.769Z,100.00
2022-11-24T03:18:35.788Z,100.00
2022-11-24T03:24:38.337Z,100.00
2022-11-24T03:30:49.183Z,100.00
2022-11-24T03:36:51.239Z,100.00
2022-11-24T03:42:53.264Z,100.00
2022-11-24T03:48:58.094Z,100.00
2022-11-24T03:55:00.102Z,100.00
2022-11-24T04:01:02.185Z,100.00
2022-11-24T04:07:04.443Z,100.00
2022-11-24T04:13:16.967Z,100.00
2022-11-24T04:19:19.191Z,100.00
2022-11-24T04:25:21.127Z,100.00
2022-11-24T04:31:23.159Z,100.00
2022-11-24T04:37:28.141Z,100.00
2022-11-24T04:43:34.165Z,100.00
2022-11-24T04:49:42.524Z,100.00
2022-11-24T04:55:44.475Z,100.00
2022-11-24T05:01:47.265Z,100.00
2022-11-24T05:07:49.283Z,100.00
2022-11-24T05:13:53.716Z,100.00
2022-11-24T05:19:55.661Z,100.00
2022-11-24T05:26:02.784Z,100.00
2022-11-24T05:32:05.123Z,100.00
2022-11-24T05:38:08.235Z,100.00
2022-11-24T05:44:10.268Z,100.00
2022-11-24T05:50:21.162Z,100.00
2022-11-24T05:56:23.480Z,100.00
2022-11-24T06:02:25.986Z,100.00
2022-11-24T06:08:35.105Z,100.00
2022-11-24T06:14:37.729Z,100.00
2022-11-24T06:20:39.636Z,100.00
2022-11-24T06:26:42.213Z,100.00
2022-11-24T06:32:49.980Z,100.00
2022-11-24T06:45:09.584Z,100.00
2022-11-24T06:51:15.868Z,100.00
2022-11-24T06:57:17.761Z,100.00
2022-11-24T07:03:20.633Z,100.00
2022-11-24T07:09:25.694Z,100.00
2022-11-24T07:15:29.950Z,100.00
2022-11-24T07:21:31.911Z,100.00
2022-11-24T07:27:33.887Z,100.00
2022-11-24T07:33:36.094Z,100.00
2022-11-24T07:39:50.219Z,100.00
2022-11-24T07:45:55.330Z,100.00
2022-11-24T07:51:57.331Z,100.00
2022-11-24T07:58:09.531Z,100.00
2022-11-24T08:04:11.517Z,100.00
2022-11-24T08:10:13.503Z,100.00
2022-11-24T08:16:19.836Z,100.00
2022-11-24T08:22:21.848Z,100.00
2022-11-24T08:28:38.071Z,100.00
2022-11-24T08:34:39.963Z,100.00
2022-11-24T08:41:07.162Z,100.00
2022-11-24T08:47:09.059Z,100.00
2022-11-24T08:53:21.447Z,100.00
2022-11-24T08:59:23.495Z,99.92
2022-11-24T09:05:50.771Z,100.00
2022-11-24T09:11:47.973Z,100.00
2022-11-24T09:17:49.864Z,100.00
2022-11-24T09:23:56.031Z,100.00
2022-11-24T09:29:57.974Z,100.00
2022-11-24T09:36:00.317Z,100.00
2022-11-24T09:42:18.767Z,100.00
2022-11-24T09:48:33.460Z,100.00
2022-11-24T09:54:37.720Z,100.00
2022-11-24T10:00:44.643Z,99.83
2022-11-24T10:07:01.574Z,98.39
2022-11-24T10:13:38.752Z,95.17
2022-11-24T10:19:52.572Z,95.06
2022-11-24T10:26:37.540Z,94.00
2022-11-24T10:32:48.811Z,93.62
2022-11-24T10:39:34.170Z,91.79
2022-11-24T10:52:08.950Z,88.50
2022-11-24T10:58:38.697Z,84.78
2022-11-24T11:04:49.696Z,86.07
2022-11-24T11:11:29.772Z,88.73
2022-11-24T11:17:37.646Z,91.32
2022-11-24T11:23:40.561Z,90.71
2022-11-24T11:36:11.486Z,88.49
2022-11-24T11:43:05.763Z,87.21
2022-11-24T11:49:12.337Z,85.71
2022-11-24T11:55:46.613Z,80.93
2022-11-24T12:02:10.082Z,84.70
2022-11-24T12:09:19.831Z,82.60
2022-11-24T12:15:43.057Z,80.06
2022-11-24T12:22:28.569Z,79.77
2022-11-24T12:29:03.172Z,81.66
2022-11-24T12:35:52.817Z,82.77
2022-11-24T12:42:35.092Z,81.54
2022-11-24T12:49:01.155Z,81.85
2022-11-24T12:55:04.575Z,81.81
2022-11-24T13:01:21.430Z,83.33
2022-11-24T13:08:02.849Z,84.85
2022-11-24T13:14:46.915Z,83.41
2022-11-24T13:20:48.961Z,83.99
2022-11-24T13:27:28.378Z,83.52
2022-11-24T13:33:33.349Z,83.05
2022-11-24T13:39:50.515Z,83.03
2022-11-24T13:45:53.946Z,83.54
2022-11-24T13:52:40.314Z,84.23
2022-11-24T13:59:27.917Z,84.09
2022-11-24T14:05:40.834Z,84.69
2022-11-24T14:11:43.089Z,87.67
2022-11-24T14:17:44.958Z,88.69
2022-11-24T14:24:17.005Z,89.47
2022-11-24T14:30:23.330Z,89.71
2022-11-24T14:36:28.033Z,89.56
2022-11-24T14:42:30.938Z,90.59
2022-11-24T14:48:38.738Z,90.31
2022-11-24T14:55:03.944Z,91.17
2022-11-24T15:01:28.807Z,91.52
2022-11-24T15:07:30.824Z,92.49
2022-11-24T15:13:42.551Z,93.11
2022-11-24T15:20:32.335Z,93.29
2022-11-24T15:26:40.216Z,93.59
2022-11-24T15:33:01.352Z,93.28
2022-11-24T15:39:03.436Z,94.71
2022-11-24T15:45:05.955Z,95.88
2022-11-24T15:51:14.881Z,97.17
2022-11-24T15:57:22.868Z,100.00
2022-11-24T16:03:46.167Z,100.00
2022-11-24T16:09:49.120Z,100.00
2022-11-24T16:15:51.095Z,100.00
2022-11-24T16:21:58.914Z,100.00
2022-11-24T16:28:00.880Z,100.00
2022-11-24T16:34:02.876Z,100.00
2022-11-24T16:40:05.923Z,100.00
2022-11-24T16:46:25.313Z,100.00
2022-11-24T16:52:27.270Z,100.00
2022-11-24T16:58:29.385Z,100.00
2022-11-24T17:04:31.659Z,100.00
2022-11-24T17:10:37.708Z,100.00
2022-11-24T17:16:45.822Z,100.00
2022-11-24T17:22:50.512Z,100.00
2022-11-24T17:29:01.920Z,100.00
2022-11-24T17:35:04.277Z,100.00
2022-11-24T17:41:06.362Z,100.00
2022-11-24T17:47:08.285Z,100.00
2022-11-24T17:53:10.255Z,100.00
2022-11-24T17:59:12.670Z,100.00
2022-11-24T18:05:14.983Z,100.00
2022-11-24T18:11:31.348Z,100.00
2022-11-24T18:17:33.901Z,100.00
2022-11-24T18:23:36.294Z,100.00
2022-11-24T18:29:38.479Z,100.00
2022-11-24T18:35:40.445Z,100.00
2022-11-24T18:41:42.349Z,100.00
2022-11-24T18:47:44.423Z,100.00
2022-11-24T18:53:52.214Z,100.00
2022-11-24T18:59:54.154Z,100.00
2022-11-24T19:05:56.185Z,100.00
2022-11-24T19:11:58.189Z,100.00
2022-11-24T19:18:03.032Z,100.00
2022-11-24T19:24:07.295Z,100.00
2022-11-24T19:30:17.860Z,100.00
2022-11-24T19:36:21.585Z,100.00
2022-11-24T19:42:23.672Z,100.00
2022-11-24T19:48:25.547Z,100.00
2022-11-24T19:54:27.630Z,100.00
2022-11-24T20:00:35.672Z,100.00
2022-11-24T20:06:42.405Z,100.00
2022-11-24T20:12:52.976Z,100.00
2022-11-24T20:19:02.698Z,100.00
2022-11-24T20:25:05.121Z,100.00
2022-11-24T20:31:13.957Z,100.00
2022-11-24T20:37:16.325Z,100.00
2022-11-24T20:43:18.249Z,100.00
2022-11-24T20:49:32.697Z,100.00
2022-11-24T20:55:37.659Z,100.00
2022-11-24T21:01:44.283Z,100.00
2022-11-24T21:07:46.334Z,100.00
2022-11-24T21:13:51.525Z,100.00
2022-11-24T21:19:56.911Z,100.00
2022-11-24T21:26:13.059Z,100.00
2022-11-24T21:32:28.136Z,100.00
2022-11-24T21:38:31.047Z,100.00
2022-11-24T21:44:33.272Z,100.00
2022-11-24T21:50:35.835Z,100.00
2022-11-24T21:56:37.807Z,100.00
2022-11-24T22:02:39.749Z,100.00
2022-11-24T22:08:48.481Z,100.00
2022-11-24T22:14:50.452Z,100.00
2022-11-24T22:20:58.401Z,100.00
2022-11-24T22:27:02.870Z,100.00
2022-11-24T22:33:10.423Z,100.00
2022-11-24T22:39:12.801Z,100.00
2022-11-24T22:45:14.972Z,100.00
2022-11-24T22:51:20.299Z,100.00
2022-11-24T22:57:22.215Z,100.00
2022-11-24T23:03:31.196Z,100.00
2022-11-24T23:09:33.847Z,100.00
2022-11-24T23:15:37.265Z,100.00
2022-11-24T23:21:39.691Z,100.00
2022-11-24T23:27:53.941Z,100.00
2022-11-24T23:34:03.749Z,100.00
2022-11-24T23:40:15.377Z,100.00
2022-11-24T23:46:23.539Z,100.00
2022-11-24T23:52:31.482Z,100.00
2022-11-24T23:58:34.993Z,100.00
